• Join FlightAware (Why Join?)
  • Login
  • US Flag 
04:35PM EDT


 

Airport Tracker/Info


-or-


 

Live Flight TrackerFlight Track Log ✈ N682RW ✈ 12-Jun-2013 ✈ KMKC - KMSP

Flight Track Log - Related Links

Times and Time Zones

All times are in EDT time to prevent confusion due to time zone crossing. See the N682RW flight status page for this flight to view local times or setup timezone preferences in your user account.

Time Position Orientation Groundspeed Altitude Reporting Facility
EDT Latitude Longitude Course Direction KTS MPH feet Rate Location/Type
07:24PM 39.1000 -94.6000 252° West 164 189 1,600  Level Kansas City TRACON
07:25PM 39.0833 -94.6667 252° West 232 267 3,300 1,800 Climbing Kansas City TRACON
07:26PM 39.0725 -94.6908 240° Southwest 237 273 4,000 2,460 Climbing Kansas City Center
07:27PM 39.1022 -94.7625 298° West 270 311 6,800 2,940 Climbing Kansas City Center
07:28PM 39.1836 -94.7831 349° North 272 313 10,100 2,460 Climbing Kansas City Center
07:29PM 39.2597 -94.7986 351° North 288 331 11,900 1,740 Climbing Kansas City Center
07:30PM 39.3669 -94.8167 353° North 349 402 13,800 2,160 Climbing Kansas City Center
07:31PM 39.4633 -94.8353 352° North 366 421 16,400 2,700 Climbing Kansas City Center
07:32PM 39.5386 -94.9356 314° West 356 410 19,500 2,400 Climbing Kansas City Center
07:33PM 39.5917 -95.0369 304° West 357 411 21,400 1,800 Climbing Kansas City Center
07:34PM 39.6569 -95.1617 304° West 377 434 23,300 1,740 Climbing Kansas City Center
07:35PM 39.7144 -95.2703 305° West 382 440 25,000 1,680 Climbing Kansas City Center
07:36PM 39.7822 -95.3997 304° West 387 445 26,900 1,560 Climbing Kansas City Center
07:37PM 39.8428 -95.5139 305° West 401 461 28,300 1,440 Climbing Kansas City Center
07:38PM 39.9122 -95.6492 304° West 404 465 29,900 1,380 Climbing Kansas City Center
07:39PM 39.9728 -95.7644 304° West 403 464 31,200 1,320 Climbing Kansas City Center
07:40PM 40.0319 -95.8794 304° West 401 461 32,700 1,320 Climbing Kansas City Center
07:41PM 40.0994 -96.0103 304° West 392 451 34,000 660 Climbing Kansas City Center
07:42PM 40.1494 -96.1089 304° West 386 444 34,000 180 Level Minneapolis Center
07:43PM 40.2169 -96.2194 309° West 395 455 34,400 480 Climbing Minneapolis Center
07:44PM 40.3106 -96.2889 331° Northwest 390 449 35,000 240 Climbing Minneapolis Center
07:45PM 40.4056 -96.3575 331° Northwest 390 449 35,000  Level Minneapolis Center
07:46PM 40.5197 -96.4419 331° Northwest 390 449 35,000  Level Minneapolis Center
07:47PM 40.6144 -96.5128 330° Northwest 390 449 35,000  Level Minneapolis Center
07:48PM 40.7086 -96.5817 331° Northwest 389 448 35,000  Level Minneapolis Center
07:49PM 40.8028 -96.6528 330° Northwest 388 447 35,000  Level Minneapolis Center
07:50PM 40.8972 -96.7228 331° Northwest 387 445 35,000  Level Minneapolis Center
07:51PM 41.0083 -96.7439 352° North 411 473 35,000  Level Minneapolis Center
07:52PM 41.1242 -96.7456 359° North 414 476 35,000  Level Minneapolis Center
07:53PM 41.2333 -96.7767 348° North 401 461 35,000  Level Minneapolis Center
07:54PM 41.3425 -96.8103 347° North 399 459 35,000  Level Minneapolis Center
07:56PM 41.4761 -96.8533 346° North 405 466 35,000  Level Minneapolis Center
07:57PM 41.5883 -96.8892 347° North 410 472 35,000  Level Minneapolis Center
07:58PM 41.7003 -96.9233 347° North 410 472 35,000  Level Minneapolis Center
07:59PM 41.8097 -96.9569 347° North 406 467 35,000  Level Minneapolis Center
08:00PM 41.9222 -96.9642 357° North 407 468 35,000  Level Minneapolis Center
08:01PM 42.0389 -96.9536 North 415 478 35,000  Level Minneapolis Center
08:02PM 42.1556 -96.9394 North 418 481 35,000  Level Minneapolis Center
08:03PM 42.2722 -96.9269 North 419 482 35,000  Level Minneapolis Center
08:04PM 42.4147 -96.9131 North 425 489 35,000  Level Minneapolis Center
08:05PM 42.5306 -96.9011 North 422 486 35,000  Level Minneapolis Center
08:06PM 42.6458 -96.8894 North 418 481 35,000  Level Minneapolis Center
08:07PM 42.7611 -96.8758 North 417 480 35,000  Level Minneapolis Center
08:08PM 42.8767 -96.8653 North 417 480 35,000  Level Minneapolis Center
08:09PM 42.9933 -96.8522 North 421 484 35,000  Level Minneapolis Center
08:10PM 43.1081 -96.8392 North 415 478 35,000  Level Minneapolis Center
08:11PM 43.2497 -96.8239 North 423 487 35,000  Level Minneapolis Center
08:12PM 43.3672 -96.8089 North 424 488 35,000  Level Minneapolis Center
08:13PM 43.4747 -96.7236 30° Northeast 445 512 35,000  Level Minneapolis Center
08:14PM 43.5611 -96.5856 49° Northeast 473 544 35,000  Level Minneapolis Center
08:15PM 43.6472 -96.4497 49° Northeast 472 543 35,000  Level Minneapolis Center
08:16PM 43.7322 -96.3136 49° Northeast 471 542 35,000  Level Minneapolis Center
08:17PM 43.8169 -96.1797 49° Northeast 468 539 35,000 -540 Level Minneapolis Center
08:18PM 43.9186 -96.0175 49° Northeast 471 542 34,000 -1,320 Descending Minneapolis Center
08:19PM 44.0031 -95.8839 49° Northeast 469 540 32,300 -1,860 Descending Minneapolis Center
08:20PM 44.0886 -95.7475 49° Northeast 474 545 30,200 -2,040 Descending Minneapolis Center
08:21PM 44.1725 -95.6114 49° Northeast 470 541 28,200 -2,040 Descending Minneapolis Center
08:22PM 44.2547 -95.4775 49° Northeast 462 532 26,100 -2,220 Descending Minneapolis Center
08:23PM 44.3486 -95.3244 49° Northeast 440 506 23,700 -2,160 Descending Minneapolis Center
08:24PM 44.4267 -95.1967 49° Northeast 436 502 21,700 -1,980 Descending Minneapolis Center
08:25PM 44.4864 -95.0575 59° Northeast 426 490 19,700 -1,980 Descending Minneapolis Center
08:26PM 44.5206 -94.9006 73° East 423 487 17,700 -1,980 Descending Minneapolis Center
08:27PM 44.5553 -94.7522 72° East 409 471 15,700 -1,860 Descending Minneapolis Center
08:28PM 44.5903 -94.6056 71° East 390 449 13,900 -1,620 Descending Minneapolis Center
08:29PM 44.6217 -94.4700 72° East 367 422 12,400 -1,320 Descending Minneapolis Center
08:30PM 44.6522 -94.3364 72° East 359 413 11,300 -660 Descending Minneapolis Center
08:31PM 44.6819 -94.2047 72° East 355 409 11,100 -120 Descending Minneapolis Center
08:33PM 44.7181 -94.0461 72° East 354 407 11,100  Level Minneapolis Center
08:34PM 44.7467 -93.9153 73° East 351 404 11,100 -60 Level Minneapolis Center
08:35PM 44.7764 -93.7842 72° East 351 404 11,000 -60 Descending Minneapolis Center
08:36PM 44.8050 -93.6522 73° East 353 406 11,000 -120 Level Minneapolis Center
08:37PM 44.8333 -93.5244 73° East 340 391 10,800 -480 Descending Minneapolis Center
08:38PM 44.8581 -93.4147 72° East 298 343 10,100 -960 Descending Minneapolis Center
08:39PM 44.8483 -93.3167 98° East 273 314 8,900 -1,560 Descending Minneapolis Center
08:40PM 44.7669 -93.2922 168° South 258 297 7,000 -1,560 Descending Minneapolis Center
08:41PM 44.7047 -93.2794 172° South 236 272 5,700 -1,500 Descending Minneapolis Center
08:42PM 44.7128 -93.2253 78° East 184 212 3,900 -1,560 Descending Minneapolis Center
08:43PM 44.7644 -93.2144 North 167 192 2,600 -900 Descending Minneapolis Center
08:44PM 44.8022 -93.2206 353° North 141 162 2,100 -600 Descending Minneapolis Center
08:45PM 44.8378 -93.2292 350° North 131 151 1,400 -720 Descending Minneapolis Center
08:47PM 44.8667 -93.2167 90° East  Level FlightAware Approximate
08:54PM 44.8820 -93.2218 90° East  Level Estimated